メインページ
METAR-TAF:

METAR-TAF

空港 :

ウィーン, オーストリア

ウィーン国際空港

緯度: 48-07N, 経度: 016-34E, 海抜: 183m

現時点の気象観測

当レポートは47分前の14:50(UTC)に作成
西/北西の風 14kt
気温 19°C
湿度 94%
気圧 1013 hPa
視程: 9000m
高度4400ftの雲はほとんどない
高度5000ftの雲は散在している
高度6000ftの千切れ雲あり
にわか雨

METAR: LOWW 251450Z 29014KT 9000 SHRA FEW044 SCT050 BKN060 19/18 Q1013 BECMG NSW

時間: 17:37 (15:37 UTC)


TAF: 見つかりません

4,000以上の空港の気象観測と天気予報(METAR報とTAF報)

利用可能な観測所は地図上に黄色い丸と赤い丸で示す。

丸の上にカーソルを重ねると観測所名を参照できる。

次にクリックすると気象観測と天気予報を参照できる。

マップの切り替え:黒色「×」印の緑ボタンをクリックして拡大、「-」印の緑ボタンをクリックして縮小、緑色の三角印をクリックして隣りの地図に切り替え


METAR-TAF: